createdAt,value
2019-03-06T00:01:10.027Z,16.60
2019-03-06T00:06:17.000Z,16.17
2019-03-06T00:11:22.668Z,16.57
2019-03-06T00:16:28.155Z,18.67
2019-03-06T00:21:33.737Z,16.12
2019-03-06T00:26:39.206Z,16.85
2019-03-06T00:31:44.710Z,15.25
2019-03-06T00:36:50.107Z,13.43
2019-03-06T00:41:55.506Z,15.03
2019-03-06T00:47:01.059Z,16.57
2019-03-06T00:52:06.556Z,14.07
2019-03-06T00:57:11.978Z,12.68
2019-03-06T01:02:17.458Z,16.75
2019-03-06T01:07:22.935Z,15.75
2019-03-06T01:12:28.522Z,13.25
2019-03-06T01:17:33.929Z,15.13
2019-03-06T01:22:39.692Z,13.58
2019-03-06T01:27:45.088Z,17.25
2019-03-06T01:32:55.387Z,13.50
2019-03-06T01:38:18.647Z,12.60
2019-03-06T01:43:34.732Z,14.03
2019-03-06T01:48:40.147Z,13.13
2019-03-06T01:53:45.566Z,16.23
2019-03-06T01:58:50.974Z,12.88
2019-03-06T02:03:56.321Z,14.40
2019-03-06T02:09:01.820Z,13.00
2019-03-06T02:14:09.042Z,12.65
2019-03-06T02:19:14.476Z,15.28
2019-03-06T02:24:19.961Z,10.72
2019-03-06T02:29:25.385Z,18.67
2019-03-06T02:34:30.809Z,11.73
2019-03-06T02:39:36.220Z,14.28
2019-03-06T02:44:41.641Z,12.85
2019-03-06T02:49:47.060Z,14.05
2019-03-06T02:54:52.392Z,13.13
2019-03-06T02:59:59.426Z,18.42
2019-03-06T03:05:08.937Z,11.53
2019-03-06T03:10:14.656Z,14.38
2019-03-06T03:15:20.603Z,11.88
2019-03-06T03:20:25.943Z,14.55
2019-03-06T03:25:31.429Z,12.25
2019-03-06T03:30:36.854Z,14.05
2019-03-06T03:35:43.449Z,16.73
2019-03-06T03:40:48.867Z,18.42
2019-03-06T03:45:55.383Z,13.43
2019-03-06T03:51:00.789Z,14.45
2019-03-06T03:56:06.196Z,12.30
2019-03-06T04:01:11.602Z,12.95
2019-03-06T04:06:16.994Z,12.63
2019-03-06T04:11:23.512Z,13.95
2019-03-06T04:16:29.300Z,16.32
2019-03-06T04:21:34.671Z,16.67
2019-03-06T04:26:40.078Z,15.25
2019-03-06T04:31:45.493Z,16.25
2019-03-06T04:36:50.833Z,17.10
2019-03-06T04:41:57.584Z,16.42
2019-03-06T04:47:03.267Z,18.02
2019-03-06T04:52:08.733Z,18.15
2019-03-06T04:57:14.144Z,18.05
2019-03-06T05:02:19.623Z,18.37
2019-03-06T05:07:25.157Z,18.50
2019-03-06T05:12:31.051Z,19.40
2019-03-06T05:17:50.125Z,16.65
2019-03-06T05:22:55.550Z,16.37
2019-03-06T05:28:00.965Z,19.25
2019-03-06T05:33:14.691Z,21.45
2019-03-06T05:38:25.907Z,24.50
2019-03-06T05:43:31.377Z,22.27
2019-03-06T05:48:36.795Z,27.30
2019-03-06T05:53:42.219Z,30.48
2019-03-06T05:58:47.652Z,18.07
2019-03-06T06:03:53.004Z,29.05
2019-03-06T06:08:58.414Z,27.93
2019-03-06T06:14:04.495Z,21.42
2019-03-06T06:19:11.607Z,20.37
2019-03-06T06:24:18.603Z,17.57
2019-03-06T06:29:23.975Z,18.07
2019-03-06T06:34:29.388Z,19.98
2019-03-06T06:39:34.906Z,19.90
2019-03-06T06:44:40.320Z,20.65
2019-03-06T06:49:45.734Z,26.35
2019-03-06T06:54:59.933Z,21.70
2019-03-06T07:00:20.015Z,25.72
2019-03-06T07:05:39.317Z,30.68
2019-03-06T07:10:52.478Z,27.50
2019-03-06T07:16:02.758Z,42.45
2019-03-06T07:21:21.955Z,27.70
2019-03-06T07:26:45.232Z,24.57
2019-03-06T07:31:55.233Z,23.30
2019-03-06T07:37:02.292Z,19.57
2019-03-06T07:42:12.155Z,19.85
2019-03-06T07:47:21.987Z,21.60
2019-03-06T07:52:35.026Z,16.50
2019-03-06T07:58:17.703Z,18.40
2019-03-06T08:03:23.212Z,17.07
2019-03-06T08:08:28.691Z,18.55
2019-03-06T08:13:35.931Z,17.35
2019-03-06T08:18:45.723Z,19.07
2019-03-06T08:23:52.725Z,17.82
2019-03-06T08:28:58.082Z,19.35
2019-03-06T08:34:03.579Z,17.48
2019-03-06T08:39:17.559Z,20.85
2019-03-06T08:44:22.963Z,17.02
2019-03-06T08:49:32.819Z,17.23
2019-03-06T08:54:54.988Z,14.80
2019-03-06T09:00:04.123Z,18.50
2019-03-06T09:05:25.869Z,14.93
2019-03-06T09:10:42.048Z,14.80
2019-03-06T09:15:52.503Z,19.40
2019-03-06T09:20:59.578Z,14.98
2019-03-06T09:26:12.998Z,17.05
2019-03-06T09:31:20.252Z,13.93
2019-03-06T09:36:39.611Z,15.88
2019-03-06T09:41:49.519Z,16.37
2019-03-06T09:46:59.577Z,16.50
2019-03-06T09:52:06.775Z,12.50
2019-03-06T09:57:16.855Z,13.13
2019-03-06T10:02:23.954Z,12.33
2019-03-06T10:07:31.067Z,13.65
2019-03-06T10:12:56.251Z,12.90
2019-03-06T10:18:05.998Z,14.00
2019-03-06T10:23:11.542Z,17.50
2019-03-06T10:28:16.944Z,11.30
2019-03-06T10:33:22.392Z,12.47
2019-03-06T10:38:27.866Z,10.85
2019-03-06T10:43:33.349Z,14.33
2019-03-06T10:48:38.743Z,13.35
2019-03-06T10:53:44.348Z,12.30
2019-03-06T10:58:50.059Z,10.05
2019-03-06T11:04:06.397Z,9.78
2019-03-06T11:09:11.947Z,13.28
2019-03-06T11:14:17.573Z,11.68
2019-03-06T11:19:23.069Z,16.37
2019-03-06T11:24:29.017Z,15.98
2019-03-06T11:29:34.497Z,15.58
2019-03-06T11:34:40.074Z,14.85
2019-03-06T11:39:45.634Z,15.45
2019-03-06T11:44:51.047Z,17.27
2019-03-06T11:49:56.844Z,23.05
2019-03-06T11:55:06.108Z,12.68
2019-03-06T12:00:36.604Z,16.05
2019-03-06T12:05:42.234Z,14.90
2019-03-06T12:10:47.963Z,16.95
2019-03-06T12:15:53.521Z,15.38
2019-03-06T12:20:59.087Z,14.75
2019-03-06T12:26:04.938Z,37.53
2019-03-06T12:31:10.628Z,12.25
2019-03-06T12:36:16.122Z,14.43
2019-03-06T12:41:21.535Z,14.13
2019-03-06T12:46:26.970Z,11.43
2019-03-06T12:51:32.499Z,14.93
2019-03-06T12:56:37.818Z,12.60
2019-03-06T13:01:43.321Z,14.45
2019-03-06T13:06:48.790Z,21.12
2019-03-06T13:11:54.212Z,14.20
2019-03-06T13:16:59.999Z,13.95
2019-03-06T13:22:11.100Z,15.48
2019-03-06T13:27:12.805Z,12.35
2019-03-06T13:32:19.103Z,10.80
2019-03-06T13:37:24.542Z,11.97
2019-03-06T13:42:29.956Z,8.90
2019-03-06T13:47:38.048Z,10.53
2019-03-06T13:52:43.535Z,13.38
2019-03-06T13:57:50.099Z,11.60
2019-03-06T14:02:55.719Z,9.83
2019-03-06T14:08:01.208Z,12.75
2019-03-06T14:13:06.650Z,11.75
2019-03-06T14:18:13.175Z,12.03
2019-03-06T14:23:18.741Z,11.85
2019-03-06T14:28:24.592Z,11.45
2019-03-06T14:33:30.441Z,13.53
2019-03-06T14:38:36.159Z,9.70
2019-03-06T14:43:41.572Z,12.28
2019-03-06T14:48:47.253Z,12.35
2019-03-06T14:53:52.671Z,14.38
2019-03-06T14:58:58.097Z,12.58
2019-03-06T15:04:03.527Z,16.07
2019-03-06T15:09:17.661Z,12.88
2019-03-06T15:14:23.082Z,18.15
2019-03-06T15:19:28.495Z,11.55
2019-03-06T15:24:40.866Z,11.43
2019-03-06T15:29:41.091Z,11.22
2019-03-06T15:34:46.570Z,12.88
2019-03-06T15:39:53.977Z,12.85
2019-03-06T15:44:59.397Z,15.75
2019-03-06T15:50:08.418Z,11.35
2019-03-06T15:55:16.982Z,13.72
2019-03-06T16:00:45.422Z,14.65
2019-03-06T16:05:43.212Z,14.63
2019-03-06T16:10:48.762Z,13.95
2019-03-06T16:15:54.537Z,19.60
2019-03-06T16:20:59.951Z,20.40
2019-03-06T16:26:06.318Z,19.12
2019-03-06T16:31:12.112Z,20.65
2019-03-06T16:36:17.878Z,19.02
2019-03-06T16:41:24.668Z,14.85
2019-03-06T16:46:31.171Z,22.70
2019-03-06T16:51:36.605Z,18.65
2019-03-06T16:56:42.168Z,23.55
2019-03-06T17:01:47.591Z,20.20
2019-03-06T17:06:54.247Z,21.42
2019-03-06T17:11:59.846Z,26.87
2019-03-06T17:17:05.395Z,22.05
2019-03-06T17:22:11.966Z,24.70
2019-03-06T17:27:17.476Z,26.57
2019-03-06T17:32:23.131Z,25.05
2019-03-06T17:37:28.604Z,22.27
2019-03-06T17:42:35.272Z,26.02
2019-03-06T17:47:40.826Z,24.92
2019-03-06T17:52:46.518Z,26.10
2019-03-06T17:57:52.211Z,27.15
2019-03-06T18:02:58.661Z,26.73
2019-03-06T18:08:04.270Z,26.07
2019-03-06T18:13:09.877Z,22.45
2019-03-06T18:18:15.296Z,23.87
2019-03-06T18:23:20.747Z,26.60
2019-03-06T18:28:26.452Z,26.48
2019-03-06T18:33:32.389Z,27.50
2019-03-06T18:38:39.157Z,23.40
2019-03-06T18:43:44.650Z,23.98
2019-03-06T18:48:50.219Z,26.00
2019-03-06T18:53:55.691Z,25.23
2019-03-06T18:59:01.208Z,25.48
2019-03-06T19:04:06.774Z,23.98
2019-03-06T19:09:12.394Z,20.90
2019-03-06T19:14:18.353Z,24.67
2019-03-06T19:19:24.012Z,22.00
2019-03-06T19:24:29.419Z,23.98
2019-03-06T19:29:34.838Z,21.42
2019-03-06T19:34:40.305Z,22.58
2019-03-06T19:39:47.319Z,20.00
2019-03-06T19:44:52.863Z,22.75
2019-03-06T19:49:58.590Z,22.32
2019-03-06T19:55:05.544Z,22.10
2019-03-06T20:00:11.320Z,25.00
2019-03-06T20:05:17.370Z,21.23
2019-03-06T20:10:23.107Z,26.20
2019-03-06T20:15:29.751Z,25.72
2019-03-06T20:20:36.832Z,22.60
2019-03-06T20:25:43.973Z,27.45
2019-03-06T20:30:49.455Z,21.62
2019-03-06T20:35:55.159Z,23.73
2019-03-06T20:41:00.594Z,26.48
2019-03-06T20:46:06.096Z,24.32
2019-03-06T20:51:11.534Z,24.70
2019-03-06T20:56:17.924Z,20.77
2019-03-06T21:01:23.359Z,25.95
2019-03-06T21:06:33.476Z,21.82
2019-03-06T21:11:36.387Z,25.12
2019-03-06T21:16:42.151Z,23.87
2019-03-06T21:21:47.748Z,25.15
2019-03-06T21:26:53.239Z,27.07
2019-03-06T21:31:58.828Z,24.18
2019-03-06T21:37:04.344Z,23.50
2019-03-06T21:42:09.858Z,18.42
2019-03-06T21:47:15.462Z,28.17
2019-03-06T21:52:23.029Z,25.20
2019-03-06T21:57:28.819Z,24.70
2019-03-06T22:02:34.297Z,25.10
2019-03-06T22:07:39.817Z,22.22
2019-03-06T22:12:45.271Z,26.30
2019-03-06T22:17:50.709Z,25.45
2019-03-06T22:22:56.176Z,29.98
2019-03-06T22:28:01.680Z,27.58
2019-03-06T22:33:07.108Z,32.23
2019-03-06T22:38:12.583Z,30.20
2019-03-06T22:43:18.022Z,26.93
2019-03-06T22:48:23.447Z,18.12
2019-03-06T22:53:28.883Z,30.20
2019-03-06T22:58:34.328Z,29.50
2019-03-06T23:03:39.896Z,23.73
2019-03-06T23:08:45.397Z,28.75
2019-03-06T23:13:51.803Z,30.00
2019-03-06T23:18:57.257Z,26.60
2019-03-06T23:24:02.755Z,21.45
2019-03-06T23:29:08.171Z,21.65
2019-03-06T23:34:13.891Z,16.82
2019-03-06T23:39:19.299Z,20.25
2019-03-06T23:44:24.741Z,23.57
2019-03-06T23:49:30.233Z,22.17
2019-03-06T23:54:35.637Z,25.52
2019-03-06T23:59:41.060Z,16.90
